createdAt,value
2018-08-22T00:01:11.437Z,12.00
2018-08-22T00:03:39.848Z,9.10
2018-08-22T00:06:08.286Z,10.83
2018-08-22T00:08:42.648Z,9.53
2018-08-22T00:11:11.612Z,8.77
2018-08-22T00:13:40.060Z,10.63
2018-08-22T00:16:08.498Z,9.80
2018-08-22T00:18:36.985Z,8.57
2018-08-22T00:21:05.414Z,9.63
2018-08-22T00:23:33.786Z,8.70
2018-08-22T00:26:02.182Z,8.27
2018-08-22T00:28:30.633Z,9.23
2018-08-22T00:30:59.159Z,9.17
2018-08-22T00:33:27.579Z,7.70
2018-08-22T00:35:55.894Z,8.80
2018-08-22T00:38:24.371Z,8.83
2018-08-22T00:40:52.784Z,8.20
2018-08-22T00:43:21.182Z,8.20
2018-08-22T00:45:49.722Z,8.20
2018-08-22T00:48:18.116Z,8.60
2018-08-22T00:50:46.575Z,8.10
2018-08-22T00:53:14.993Z,8.63
2018-08-22T00:55:43.345Z,10.43
2018-08-22T00:58:12.861Z,10.50
2018-08-22T01:00:41.300Z,11.80
2018-08-22T01:03:09.741Z,8.87
2018-08-22T01:05:38.157Z,10.83
2018-08-22T01:08:06.589Z,11.03
2018-08-22T01:10:35.046Z,8.13
2018-08-22T01:13:03.461Z,9.70
2018-08-22T01:15:31.947Z,8.83
2018-08-22T01:18:00.417Z,8.13
2018-08-22T01:20:29.062Z,8.40
2018-08-22T01:22:57.521Z,8.80
2018-08-22T01:25:25.929Z,9.60
2018-08-22T01:27:54.302Z,11.10
2018-08-22T01:30:22.719Z,8.70
2018-08-22T01:32:51.141Z,10.57
2018-08-22T01:35:23.546Z,9.03
2018-08-22T01:37:51.964Z,8.80
2018-08-22T01:40:20.369Z,8.80
2018-08-22T01:42:48.805Z,8.17
2018-08-22T01:45:17.296Z,8.87
2018-08-22T01:47:45.703Z,9.83
2018-08-22T01:50:14.119Z,8.27
2018-08-22T01:52:42.524Z,8.17
2018-08-22T01:55:10.905Z,9.17
2018-08-22T01:57:39.332Z,9.30
2018-08-22T02:00:08.855Z,9.40
2018-08-22T02:02:37.366Z,9.70
2018-08-22T02:05:05.843Z,9.17
2018-08-22T02:07:34.443Z,10.07
2018-08-22T02:10:02.813Z,9.30
2018-08-22T02:12:31.098Z,9.27
2018-08-22T02:14:59.521Z,9.03
2018-08-22T02:17:27.993Z,9.73
2018-08-22T02:19:56.500Z,9.47
2018-08-22T02:22:24.914Z,8.77
2018-08-22T02:24:53.288Z,8.37
2018-08-22T02:27:21.683Z,8.87
2018-08-22T02:29:50.142Z,9.30
2018-08-22T02:32:18.574Z,9.97
2018-08-22T02:34:46.891Z,10.03
2018-08-22T02:37:15.300Z,10.07
2018-08-22T02:39:43.727Z,10.67
2018-08-22T02:42:12.111Z,9.23
2018-08-22T02:44:40.633Z,10.23
2018-08-22T02:47:09.102Z,10.50
2018-08-22T02:49:37.511Z,9.53
2018-08-22T02:52:05.910Z,9.53
2018-08-22T02:54:34.288Z,9.53
2018-08-22T02:57:02.743Z,9.00
2018-08-22T02:59:31.139Z,9.60
2018-08-22T03:01:59.507Z,11.97
2018-08-22T03:04:27.870Z,9.43
2018-08-22T03:06:56.359Z,9.37
2018-08-22T03:09:24.783Z,9.57
2018-08-22T03:11:53.223Z,11.37
2018-08-22T03:14:21.686Z,10.10
2018-08-22T03:16:50.068Z,10.00
2018-08-22T03:19:18.548Z,10.33
2018-08-22T03:21:47.077Z,10.17
2018-08-22T03:24:15.559Z,11.70
2018-08-22T03:26:44.031Z,9.83
2018-08-22T03:29:12.542Z,9.73
2018-08-22T03:31:41.022Z,10.10
2018-08-22T03:34:09.491Z,9.57
2018-08-22T03:36:37.931Z,9.90
2018-08-22T03:39:07.463Z,10.70
2018-08-22T03:41:35.947Z,10.13
2018-08-22T03:44:04.326Z,11.40
2018-08-22T03:46:32.787Z,11.80
2018-08-22T03:49:01.242Z,10.50
2018-08-22T03:51:29.726Z,9.70
2018-08-22T03:53:58.251Z,11.60
2018-08-22T03:56:26.684Z,9.30
2018-08-22T03:58:55.230Z,9.73
2018-08-22T04:01:23.646Z,10.00
2018-08-22T04:03:52.135Z,10.27
2018-08-22T04:06:20.650Z,10.87
2018-08-22T04:08:49.029Z,13.27
2018-08-22T04:11:17.419Z,10.70
2018-08-22T04:13:45.827Z,16.70
2018-08-22T04:16:14.259Z,11.27
2018-08-22T04:18:42.766Z,10.20
2018-08-22T04:21:11.218Z,9.43
2018-08-22T04:23:39.669Z,9.43
2018-08-22T04:26:08.087Z,11.23
2018-08-22T04:28:36.583Z,13.67
2018-08-22T04:31:04.906Z,21.17
2018-08-22T04:33:33.281Z,11.93
2018-08-22T04:36:01.732Z,11.60
2018-08-22T04:38:30.125Z,12.43
2018-08-22T04:40:58.548Z,10.87
2018-08-22T04:43:26.943Z,10.53
2018-08-22T04:45:55.314Z,10.00
2018-08-22T04:48:23.744Z,10.27
2018-08-22T04:50:52.239Z,10.67
2018-08-22T04:53:20.698Z,9.70
2018-08-22T04:55:49.146Z,10.50
2018-08-22T04:58:17.580Z,10.40
2018-08-22T05:00:46.040Z,10.13
2018-08-22T05:03:14.443Z,10.83
2018-08-22T05:05:42.919Z,10.67
2018-08-22T05:08:11.430Z,10.43
2018-08-22T05:10:39.983Z,9.80
2018-08-22T05:13:08.310Z,9.33
2018-08-22T05:15:36.745Z,10.03
2018-08-22T05:18:05.791Z,9.43
2018-08-22T05:20:34.334Z,11.27
2018-08-22T05:23:02.863Z,9.67
2018-08-22T05:25:31.428Z,11.27
2018-08-22T05:27:59.946Z,9.20
2018-08-22T05:30:28.300Z,9.13
2018-08-22T05:32:56.782Z,9.03
2018-08-22T05:35:25.268Z,11.67
2018-08-22T05:37:53.690Z,11.60
2018-08-22T05:40:22.281Z,11.17
2018-08-22T05:42:50.763Z,11.50
2018-08-22T05:45:19.188Z,11.53
2018-08-22T05:47:47.674Z,12.63
2018-08-22T05:50:16.139Z,10.63
2018-08-22T05:52:44.522Z,10.73
2018-08-22T05:55:13.030Z,12.77
2018-08-22T05:57:41.475Z,12.80
2018-08-22T06:00:09.916Z,13.87
2018-08-22T06:02:38.479Z,11.73
2018-08-22T06:05:06.886Z,13.10
2018-08-22T06:07:35.305Z,12.93
2018-08-22T06:10:03.735Z,12.27
2018-08-22T06:12:32.094Z,10.67
2018-08-22T06:15:00.490Z,12.77
2018-08-22T06:17:28.927Z,11.30
2018-08-22T06:19:57.459Z,14.23
2018-08-22T06:22:25.926Z,11.40
2018-08-22T06:24:54.383Z,10.90
2018-08-22T06:27:22.840Z,12.17
2018-08-22T06:29:51.279Z,10.97
2018-08-22T06:32:19.711Z,10.63
2018-08-22T06:34:48.152Z,14.00
2018-08-22T06:37:16.650Z,9.90
2018-08-22T06:39:45.029Z,14.03
2018-08-22T06:42:13.474Z,11.37
2018-08-22T06:44:41.911Z,16.90
2018-08-22T06:47:10.455Z,10.67
2018-08-22T06:49:38.984Z,10.83
2018-08-22T06:52:07.482Z,10.20
2018-08-22T06:54:35.983Z,10.43
2018-08-22T06:57:04.422Z,12.43
2018-08-22T06:59:32.856Z,10.40
2018-08-22T07:02:01.216Z,10.47
2018-08-22T07:04:29.763Z,9.83
2018-08-22T07:06:58.243Z,13.07
2018-08-22T07:09:26.727Z,9.83
2018-08-22T07:11:55.223Z,14.30
2018-08-22T07:14:23.713Z,11.00
2018-08-22T07:16:52.226Z,9.83
2018-08-22T07:19:20.816Z,9.50
2018-08-22T07:21:49.262Z,10.27
2018-08-22T07:24:17.731Z,10.33
2018-08-22T07:26:46.229Z,9.87
2018-08-22T07:29:14.688Z,11.27
2018-08-22T07:31:43.118Z,9.97
2018-08-22T07:34:11.472Z,10.67
2018-08-22T07:36:39.822Z,10.40
2018-08-22T07:39:11.530Z,10.90
2018-08-22T07:41:39.987Z,9.83
2018-08-22T07:44:09.369Z,9.87
2018-08-22T07:46:37.816Z,9.20
2018-08-22T07:49:06.231Z,11.27
2018-08-22T07:51:34.636Z,10.33
2018-08-22T07:54:03.090Z,9.70
2018-08-22T07:56:31.614Z,10.63
2018-08-22T07:59:14.859Z,10.00
2018-08-22T08:01:43.282Z,11.57
2018-08-22T08:04:12.619Z,12.00
2018-08-22T08:06:41.510Z,10.57
2018-08-22T08:09:13.199Z,12.03
2018-08-22T08:11:41.706Z,11.37
2018-08-22T08:14:10.266Z,14.83
2018-08-22T08:16:38.742Z,8.70
2018-08-22T08:19:07.835Z,7.77
2018-08-22T08:21:36.414Z,10.13
2018-08-22T08:24:05.003Z,10.10
2018-08-22T08:26:33.454Z,8.30
2018-08-22T08:29:01.826Z,8.53
2018-08-22T08:31:34.240Z,9.13
2018-08-22T08:34:02.690Z,8.17
2018-08-22T08:36:31.137Z,8.53
2018-08-22T08:38:59.528Z,9.77
2018-08-22T08:41:28.030Z,8.80
2018-08-22T08:43:56.392Z,8.77
2018-08-22T08:46:24.844Z,8.87
2018-08-22T08:48:53.297Z,8.80
2018-08-22T08:51:21.742Z,7.50
2018-08-22T08:53:50.095Z,17.87
2018-08-22T08:56:18.550Z,11.07
2018-08-22T08:58:46.983Z,7.73
2018-08-22T09:01:15.548Z,8.40
2018-08-22T09:03:44.012Z,10.27
2018-08-22T09:06:12.680Z,8.17
2018-08-22T09:08:41.030Z,7.77
2018-08-22T09:11:09.474Z,7.30
2018-08-22T09:13:42.431Z,8.13
2018-08-22T09:16:11.216Z,8.90
2018-08-22T09:18:39.661Z,8.33
2018-08-22T09:21:08.154Z,8.10
2018-08-22T09:23:36.624Z,7.73
2018-08-22T09:26:05.072Z,8.57
2018-08-22T09:28:33.641Z,8.03
2018-08-22T09:31:02.089Z,7.30
2018-08-22T09:33:30.411Z,9.43
2018-08-22T09:35:58.840Z,8.10
2018-08-22T09:38:27.613Z,8.23
2018-08-22T09:40:55.980Z,8.13
2018-08-22T09:43:24.405Z,8.30
2018-08-22T09:45:52.860Z,7.50
2018-08-22T09:48:21.285Z,7.70
2018-08-22T09:50:49.741Z,7.83
2018-08-22T09:53:18.203Z,6.87
2018-08-22T09:55:46.614Z,8.40
2018-08-22T09:58:15.088Z,8.33
2018-08-22T10:00:48.886Z,7.20
2018-08-22T10:03:17.192Z,8.07
2018-08-22T10:05:45.691Z,8.07
2018-08-22T10:08:14.088Z,10.00
2018-08-22T10:10:42.525Z,7.00
2018-08-22T10:13:11.079Z,7.37
2018-08-22T10:15:41.181Z,6.87
2018-08-22T10:18:09.654Z,7.00
2018-08-22T10:20:38.246Z,7.53
2018-08-22T10:23:06.641Z,8.47
2018-08-22T10:25:35.057Z,6.60
2018-08-22T10:28:03.429Z,7.73
2018-08-22T10:30:31.887Z,7.50
2018-08-22T10:33:00.399Z,7.00
2018-08-22T10:35:28.778Z,7.10
2018-08-22T10:37:57.109Z,6.97
2018-08-22T10:40:25.429Z,6.50
2018-08-22T10:42:53.874Z,7.50
2018-08-22T10:45:22.266Z,6.23
2018-08-22T10:47:50.759Z,7.67
2018-08-22T10:50:19.120Z,6.57
2018-08-22T10:52:47.523Z,6.30
2018-08-22T10:55:15.975Z,6.00
2018-08-22T10:57:44.398Z,6.43
2018-08-22T11:00:12.766Z,5.00
2018-08-22T11:02:41.174Z,5.77
2018-08-22T11:05:09.585Z,5.87
2018-08-22T11:07:37.967Z,6.17
2018-08-22T11:10:06.374Z,6.97
2018-08-22T11:12:34.852Z,7.63
2018-08-22T11:15:03.371Z,7.03
2018-08-22T11:17:31.938Z,9.03
2018-08-22T11:20:00.401Z,6.70
2018-08-22T11:22:40.017Z,8.67
2018-08-22T11:25:19.780Z,7.00
2018-08-22T11:27:59.448Z,6.40
2018-08-22T11:30:38.994Z,12.60
2018-08-22T11:33:18.682Z,6.30
2018-08-22T11:35:45.964Z,19.27
2018-08-22T11:38:14.427Z,6.90
2018-08-22T11:40:42.803Z,7.10
2018-08-22T11:43:11.175Z,7.33
2018-08-22T11:45:39.615Z,7.00
2018-08-22T11:48:07.976Z,6.77
2018-08-22T11:50:36.367Z,6.40
2018-08-22T11:53:04.892Z,6.87
2018-08-22T11:55:33.296Z,6.77
2018-08-22T11:58:01.657Z,6.70
2018-08-22T12:00:30.085Z,7.17
2018-08-22T12:02:58.668Z,6.93
2018-08-22T12:05:27.199Z,7.43
2018-08-22T12:07:55.682Z,7.40
2018-08-22T12:10:28.364Z,8.50
2018-08-22T12:12:56.801Z,7.83
2018-08-22T12:15:25.232Z,6.70
2018-08-22T12:17:53.780Z,7.70
2018-08-22T12:20:22.263Z,7.50
2018-08-22T12:22:50.719Z,7.33
2018-08-22T12:25:19.019Z,7.60
2018-08-22T12:27:47.471Z,8.43
2018-08-22T12:30:15.761Z,7.63
2018-08-22T12:32:44.205Z,7.10
2018-08-22T12:35:12.605Z,6.60
2018-08-22T12:37:41.027Z,8.40
2018-08-22T12:40:10.234Z,6.50
2018-08-22T12:42:39.209Z,6.40
2018-08-22T12:45:08.283Z,7.87
2018-08-22T12:47:36.769Z,6.47
2018-08-22T12:50:05.343Z,7.00
2018-08-22T12:52:33.720Z,6.57
2018-08-22T12:55:02.117Z,7.83
2018-08-22T12:57:30.522Z,4.77
2018-08-22T12:59:58.862Z,4.97
2018-08-22T13:02:27.356Z,5.20
2018-08-22T13:04:55.796Z,5.77
2018-08-22T13:07:24.268Z,5.40
2018-08-22T13:09:52.621Z,5.57
2018-08-22T13:12:20.955Z,4.53
2018-08-22T13:14:49.359Z,4.67
2018-08-22T13:17:17.835Z,5.40
2018-08-22T13:19:46.197Z,5.87
2018-08-22T13:22:14.675Z,5.30
2018-08-22T13:24:43.091Z,7.47
2018-08-22T13:27:11.403Z,5.07
2018-08-22T13:29:39.810Z,5.27
2018-08-22T13:32:08.657Z,6.03
2018-08-22T13:34:37.071Z,5.30
2018-08-22T13:37:05.474Z,5.83
2018-08-22T13:39:33.885Z,6.13
2018-08-22T13:42:02.389Z,5.50
2018-08-22T13:44:30.735Z,5.83
2018-08-22T13:46:59.202Z,5.63
2018-08-22T13:49:27.578Z,5.60
2018-08-22T13:51:55.946Z,6.67
2018-08-22T13:54:24.336Z,6.27
2018-08-22T13:56:52.659Z,6.60
2018-08-22T13:59:21.120Z,5.83
2018-08-22T14:01:49.727Z,5.43
2018-08-22T14:04:17.943Z,5.70
2018-08-22T14:06:46.661Z,5.97
2018-08-22T14:09:15.023Z,5.73
2018-08-22T14:11:43.352Z,6.23
2018-08-22T14:14:11.903Z,5.70
2018-08-22T14:16:40.267Z,6.30
2018-08-22T14:19:08.767Z,5.83
2018-08-22T14:21:37.194Z,5.27
2018-08-22T14:24:05.833Z,6.03
2018-08-22T14:26:34.286Z,6.20
2018-08-22T14:29:02.752Z,8.37
2018-08-22T14:31:31.222Z,6.50
2018-08-22T14:33:59.534Z,7.23
2018-08-22T14:36:27.940Z,5.97
2018-08-22T14:38:56.345Z,5.80
2018-08-22T14:41:24.858Z,6.43
2018-08-22T14:43:53.348Z,5.47
2018-08-22T14:46:21.823Z,6.27
2018-08-22T14:48:50.340Z,6.50
2018-08-22T14:51:18.764Z,8.07
2018-08-22T14:53:47.217Z,7.17
2018-08-22T14:56:15.800Z,6.20
2018-08-22T14:58:44.283Z,6.63
2018-08-22T15:01:12.692Z,6.90
2018-08-22T15:03:41.085Z,6.70
2018-08-22T15:06:09.405Z,6.50
2018-08-22T15:08:37.838Z,7.43
2018-08-22T15:11:06.360Z,6.07
2018-08-22T15:13:34.992Z,6.00
2018-08-22T15:16:03.438Z,6.20
2018-08-22T15:18:31.903Z,6.53
2018-08-22T15:21:00.471Z,6.17
2018-08-22T15:23:28.965Z,6.77
2018-08-22T15:25:57.415Z,6.23
2018-08-22T15:28:25.818Z,6.50
2018-08-22T15:30:54.303Z,7.23
2018-08-22T15:33:22.729Z,6.27
2018-08-22T15:35:51.301Z,6.33
2018-08-22T15:38:20.440Z,7.97
2018-08-22T15:40:49.044Z,6.20
2018-08-22T15:43:17.431Z,6.13
2018-08-22T15:45:45.876Z,6.67
2018-08-22T15:48:14.255Z,6.70
2018-08-22T15:50:42.683Z,6.67
2018-08-22T15:53:11.186Z,6.60
2018-08-22T15:55:39.590Z,7.53
2018-08-22T15:58:08.052Z,7.23
2018-08-22T16:00:55.257Z,6.97
2018-08-22T16:03:24.955Z,6.97
2018-08-22T16:05:54.395Z,7.10
2018-08-22T16:08:24.172Z,6.43
2018-08-22T16:10:52.594Z,5.90
2018-08-22T16:13:26.266Z,6.30
2018-08-22T16:15:56.410Z,5.90
2018-08-22T16:18:24.904Z,6.93
2018-08-22T16:20:57.815Z,6.77
2018-08-22T16:23:27.887Z,6.50
2018-08-22T16:25:57.841Z,6.80
2018-08-22T16:28:26.968Z,6.20
2018-08-22T16:30:57.508Z,6.47
2018-08-22T16:33:25.803Z,6.13
2018-08-22T16:35:54.196Z,7.77
2018-08-22T16:38:22.631Z,7.10
2018-08-22T16:40:53.011Z,6.73
2018-08-22T16:43:38.064Z,6.20
2018-08-22T16:46:07.667Z,6.77
2018-08-22T16:48:36.319Z,5.90
2018-08-22T16:51:04.699Z,5.90
2018-08-22T16:53:33.615Z,6.10
2018-08-22T16:56:02.020Z,6.77
2018-08-22T16:58:30.532Z,6.80
2018-08-22T17:00:58.972Z,7.03
2018-08-22T17:03:27.306Z,6.47
2018-08-22T17:06:00.627Z,6.97
2018-08-22T17:08:29.369Z,7.27
2018-08-22T17:11:02.904Z,7.93
2018-08-22T17:13:42.788Z,6.70
2018-08-22T17:16:11.294Z,7.47
2018-08-22T17:18:39.711Z,7.37
2018-08-22T17:21:08.528Z,7.87
2018-08-22T17:23:36.908Z,7.23
2018-08-22T17:26:05.666Z,7.40
2018-08-22T17:28:39.283Z,9.40
2018-08-22T17:31:08.439Z,8.50
2018-08-22T17:33:42.073Z,7.50
2018-08-22T17:36:11.914Z,8.60
2018-08-22T17:38:44.134Z,7.27
2018-08-22T17:41:12.701Z,9.57
2018-08-22T17:43:55.321Z,10.67
2018-08-22T17:46:28.534Z,12.37
2018-08-22T17:48:57.343Z,10.03
2018-08-22T17:51:25.851Z,13.63
2018-08-22T17:53:54.379Z,11.30
2018-08-22T17:56:24.163Z,8.63
2018-08-22T17:58:53.519Z,7.47
2018-08-22T18:01:22.716Z,7.73
2018-08-22T18:03:51.827Z,11.23
2018-08-22T18:06:20.236Z,11.17
2018-08-22T18:08:48.670Z,7.73
2018-08-22T18:11:17.527Z,8.03
2018-08-22T18:13:46.058Z,9.00
2018-08-22T18:16:14.415Z,9.23
2018-08-22T18:18:42.866Z,8.70
2018-08-22T18:21:11.330Z,7.93
2018-08-22T18:23:44.006Z,26.90
2018-08-22T18:26:12.439Z,10.93
2018-08-22T18:28:41.397Z,19.50
2018-08-22T18:31:09.860Z,17.90
2018-08-22T18:33:50.663Z,14.67
2018-08-22T18:36:19.145Z,13.50
2018-08-22T18:38:59.890Z,10.23
2018-08-22T18:41:28.346Z,10.53
2018-08-22T18:43:56.851Z,10.03
2018-08-22T18:46:26.524Z,7.80
2018-08-22T18:48:54.987Z,10.97
2018-08-22T18:51:23.443Z,11.83
2018-08-22T18:53:51.881Z,10.13
2018-08-22T18:56:21.705Z,9.90
2018-08-22T18:58:50.918Z,10.73
2018-08-22T19:01:19.622Z,9.03
2018-08-22T19:03:48.071Z,25.03
2018-08-22T19:06:16.626Z,31.03
2018-08-22T19:08:45.151Z,16.37
2018-08-22T19:11:13.659Z,14.27
2018-08-22T19:13:42.019Z,10.20
2018-08-22T19:16:11.306Z,10.47
2018-08-22T19:18:40.013Z,9.80
2018-08-22T19:21:09.707Z,11.37
2018-08-22T19:23:38.240Z,11.77
2018-08-22T19:26:07.372Z,10.87
2018-08-22T19:28:52.410Z,9.37
2018-08-22T19:31:20.786Z,12.43
2018-08-22T19:33:49.101Z,11.63
2018-08-22T19:36:17.532Z,9.80
2018-08-22T19:38:45.978Z,12.87
2018-08-22T19:41:23.706Z,48.63
2018-08-22T19:43:52.272Z,11.20
2018-08-22T19:46:20.672Z,18.97
2018-08-22T19:48:49.143Z,9.70
2018-08-22T19:51:17.584Z,10.27
2018-08-22T19:53:59.243Z,15.40
2018-08-22T19:56:28.461Z,10.33
2018-08-22T19:58:56.850Z,12.77
2018-08-22T20:01:25.230Z,13.80
2018-08-22T20:03:56.066Z,15.30
2018-08-22T20:06:25.335Z,16.83
2018-08-22T20:08:55.638Z,13.33
2018-08-22T20:11:25.067Z,14.03
2018-08-22T20:13:59.587Z,11.03
2018-08-22T20:16:27.933Z,10.87
2018-08-22T20:18:57.527Z,10.10
2018-08-22T20:21:33.967Z,11.57
2018-08-22T20:24:03.577Z,12.63
2018-08-22T20:26:32.458Z,23.20
2018-08-22T20:29:02.175Z,11.97
2018-08-22T20:31:30.657Z,22.40
2018-08-22T20:34:03.987Z,17.90
2018-08-22T20:36:32.489Z,22.20
2018-08-22T20:39:05.031Z,19.07
2018-08-22T20:41:33.883Z,12.17
2018-08-22T20:44:02.271Z,11.53
2018-08-22T20:46:30.636Z,10.63
2018-08-22T20:48:58.994Z,12.67
2018-08-22T20:51:28.791Z,14.57
2018-08-22T20:54:01.452Z,13.13
2018-08-22T20:56:30.624Z,21.97
2018-08-22T20:58:58.990Z,27.57
2018-08-22T21:01:27.394Z,16.10
2018-08-22T21:03:55.735Z,13.30
2018-08-22T21:06:24.133Z,13.20
2018-08-22T21:08:52.558Z,13.97
2018-08-22T21:11:20.955Z,15.47
2018-08-22T21:13:49.476Z,23.17
2018-08-22T21:16:17.854Z,22.67
2018-08-22T21:18:46.304Z,15.50
2018-08-22T21:21:21.730Z,13.57
2018-08-22T21:23:50.232Z,13.03
2018-08-22T21:26:51.527Z,18.13
2018-08-22T21:29:20.147Z,17.57
2018-08-22T21:31:48.645Z,15.00
2018-08-22T21:34:21.514Z,13.43
2018-08-22T21:36:49.955Z,14.63
2018-08-22T21:39:23.706Z,16.10
2018-08-22T21:41:52.183Z,17.80
2018-08-22T21:44:21.784Z,13.90
2018-08-22T21:46:57.649Z,16.13
2018-08-22T21:49:26.110Z,13.30
2018-08-22T21:51:57.388Z,17.77
2018-08-22T21:54:25.863Z,17.13
2018-08-22T21:56:54.314Z,13.83
2018-08-22T21:59:22.786Z,19.17
2018-08-22T22:01:56.423Z,14.50
2018-08-22T22:04:29.932Z,14.43
2018-08-22T22:06:58.383Z,13.27
2018-08-22T22:09:26.762Z,12.60
2018-08-22T22:11:57.403Z,15.70
2018-08-22T22:14:26.694Z,11.90
2018-08-22T22:16:56.716Z,15.23
2018-08-22T22:19:26.767Z,13.50
2018-08-22T22:21:55.199Z,13.93
2018-08-22T22:24:23.599Z,12.47
2018-08-22T22:26:52.050Z,14.13
2018-08-22T22:29:23.623Z,12.27
2018-08-22T22:31:52.098Z,12.83
2018-08-22T22:34:20.566Z,12.50
2018-08-22T22:36:48.931Z,13.17
2018-08-22T22:39:35.674Z,11.53
2018-08-22T22:42:14.199Z,11.90
2018-08-22T22:44:44.510Z,11.80
2018-08-22T22:47:18.230Z,14.93
2018-08-22T22:49:46.642Z,15.03
2018-08-22T22:52:31.644Z,14.97
2018-08-22T22:55:01.300Z,11.97
2018-08-22T22:57:30.324Z,11.70
2018-08-22T23:00:00.183Z,12.33
2018-08-22T23:02:29.063Z,14.10
2018-08-22T23:04:58.095Z,16.43
2018-08-22T23:07:29.570Z,12.97
2018-08-22T23:09:59.106Z,14.27
2018-08-22T23:12:33.788Z,10.97
2018-08-22T23:15:02.090Z,11.40
2018-08-22T23:17:30.506Z,12.43
2018-08-22T23:20:14.331Z,13.27
2018-08-22T23:22:42.834Z,11.63
2018-08-22T23:25:11.732Z,12.63
2018-08-22T23:27:40.629Z,13.13
2018-08-22T23:30:09.344Z,13.33
2018-08-22T23:32:38.845Z,11.53
2018-08-22T23:35:20.434Z,11.67
2018-08-22T23:37:53.727Z,11.63
2018-08-22T23:40:23.292Z,11.53
2018-08-22T23:42:51.801Z,13.00
2018-08-22T23:45:20.323Z,11.40
2018-08-22T23:47:48.785Z,13.10
2018-08-22T23:50:17.182Z,11.47
2018-08-22T23:52:48.458Z,10.60
2018-08-22T23:55:17.639Z,10.47
2018-08-22T23:57:46.079Z,9.67
